^^
Grace C. Lehan Memorial Weather Station Historical Data
Daily Summary for November 1, 2021 Units:  English    Metric   Both
Daily Weekly Monthly Yearly
  High: Low: Average:
Temperature: 61 °F 46.1 °F 53.8 °F
Dew Point: 50.1 °F 34 °F 42.5 °F
Humidity: 95% 39.3% 70%
Wind Speed: 12.6mph 0mph 1.8mph
Wind Gust: 23mph - -
Wind- - WNW
Pressure: 30.06 in 29.73 in -
Precipitation: 0.00 in    
 
 
Tabular Data for November 1, 2021
Time Temperature Dew Point Pressure Wind Wind Speed Wind Gust Humidity Rainfall Rate (Hourly) solar
00:09 52.9 °F 50.1 °F 29.73 in Calm     90% 0.00 in 0 W/m2
00:14 52.8 °F 50 °F 29.73 in Calm     90% 0.00 in 0 W/m2
00:19 52.7 °F 49.9 °F 29.73 in Calm     90% 0.00 in 0 W/m2
00:24 52.7 °F 49.8 °F 29.73 in Calm     90% 0.00 in 0 W/m2
00:29 52.7 °F 49.8 °F 29.73 in Calm     90% 0.00 in 0 W/m2
00:34 52.7 °F 49.8 °F 29.73 in Calm     90% 0.00 in 0 W/m2
00:39 52.6 °F 49.8 °F 29.73 in Calm     90% 0.00 in 0 W/m2
00:44 52.5 °F 49.7 °F 29.74 in Calm     90% 0.00 in 0 W/m2
00:48 52.4 °F 49.6 °F 29.74 in Calm     90% 0.00 in 0 W/m2
00:54 52.4 °F 49.5 °F 29.73 in Calm     90% 0.00 in 0 W/m2
00:59 52.2 °F 49.4 °F 29.73 in Calm     90% 0.00 in 0 W/m2
01:04 52.1 °F 49.3 °F 29.73 in Calm     90% 0.00 in 0 W/m2
01:09 51.9 °F 49.1 °F 29.73 in Calm     90% 0.00 in 0 W/m2
01:14 51.8 °F 49 °F 29.73 in Calm     90.2% 0.00 in 0 W/m2
01:19 51.7 °F 49.1 °F 29.73 in Calm     90.8% 0.00 in 0 W/m2
01:24 51.5 °F 49 °F 29.73 in Calm     91% 0.00 in 0 W/m2
01:29 51.3 °F 48.7 °F 29.73 in Calm     90.8% 0.00 in 0 W/m2
01:34 51.1 °F 48.5 °F 29.73 in Calm     91% 0.00 in 0 W/m2
01:39 50.9 °F 48.4 °F 29.74 in Calm     91% 0.00 in 0 W/m2
01:44 50.8 °F 48.4 °F 29.74 in Calm     91.6% 0.00 in 0 W/m2
01:49 50.7 °F 48.5 °F 29.74 in Calm     92% 0.00 in 0 W/m2
01:54 50.7 °F 48.5 °F 29.74 in Calm     92% 0.00 in 0 W/m2
01:59 50.6 °F 48.4 °F 29.74 in Calm     92% 0.00 in 0 W/m2
02:04 50.5 °F 48.2 °F 29.74 in Calm     92% 0.00 in 0 W/m2
02:09 50.3 °F 48.1 °F 29.75 in Calm     92% 0.00 in 0 W/m2
02:14 50.2 °F 48 °F 29.75 in Calm     92% 0.00 in 0 W/m2
02:19 50.2 °F 47.9 °F 29.75 in Calm     92% 0.00 in 0 W/m2
02:24 50.1 °F 47.9 °F 29.75 in Calm     92% 0.00 in 0 W/m2
02:29 50 °F 47.8 °F 29.75 in Calm     92% 0.00 in 0 W/m2
02:34 49.9 °F 47.7 °F 29.75 in Calm     92% 0.00 in 0 W/m2
02:39 49.8 °F 47.5 °F 29.75 in Calm     92% 0.00 in 0 W/m2
02:44 49.6 °F 47.4 °F 29.75 in Calm     92% 0.00 in 0 W/m2
02:49 49.3 °F 47.1 °F 29.75 in Calm     92% 0.00 in 0 W/m2
02:54 49.2 °F 46.9 °F 29.75 in Calm     92% 0.00 in 0 W/m2
02:59 49 °F 46.9 °F 29.76 in Calm     92.2% 0.00 in 0 W/m2
03:04 49 °F 47 °F 29.76 in Calm     93% 0.00 in 0 W/m2
03:09 48.8 °F 46.9 °F 29.76 in Calm     93% 0.00 in 0 W/m2
03:14 48.7 °F 46.8 °F 29.76 in Calm     93% 0.00 in 0 W/m2
03:19 48.6 °F 46.6 °F 29.76 in Calm     93% 0.00 in 0 W/m2
03:24 48.4 °F 46.5 °F 29.76 in Calm     93% 0.00 in 0 W/m2
03:29 48.3 °F 46.4 °F 29.77 in Calm     93% 0.00 in 0 W/m2
03:34 48.4 °F 46.5 °F 29.76 in WSW 0.3 mph 4 mph 93.3% 0.00 in 0 W/m2
03:39 48.5 °F 46.9 °F 29.77 in Calm   4 mph 94% 0.00 in 0 W/m2
03:44 48.5 °F 46.9 °F 29.77 in Calm   4 mph 94% 0.00 in 0 W/m2
03:49 48.5 °F 46.9 °F 29.77 in WSW 0.1 mph 4 mph 94% 0.00 in 0 W/m2
03:54 48.4 °F 46.8 °F 29.77 in WSW 0.3 mph 4 mph 94% 0.00 in 0 W/m2
03:59 48.4 °F 46.8 °F 29.77 in Calm   4 mph 94% 0.00 in 0 W/m2
04:00 48.4 °F 46.8 °F 29.77 in Calm   4 mph 94% 0.00 in 0 W/m2
04:09 48.5 °F 46.9 °F 29.78 in Calm     94% 0.00 in 0 W/m2
04:14 48.5 °F 46.9 °F 29.78 in Calm     94% 0.00 in 0 W/m2
04:19 48.5 °F 46.9 °F 29.78 in Calm     94% 0.00 in 0 W/m2
04:24 48.4 °F 46.7 °F 29.79 in Calm     94% 0.00 in 0 W/m2
04:29 48.2 °F 46.6 °F 29.79 in Calm     94% 0.00 in 0 W/m2
04:34 48.1 °F 46.5 °F 29.79 in Calm     94% 0.00 in 0 W/m2
04:39 48 °F 46.4 °F 29.79 in Calm     94% 0.00 in 0 W/m2
04:44 48 °F 46.3 °F 29.80 in Calm     94% 0.00 in 0 W/m2
04:49 47.9 °F 46.3 °F 29.80 in Calm     94% 0.00 in 0 W/m2
04:54 47.8 °F 46.2 °F 29.81 in Calm     94% 0.00 in 0 W/m2
04:59 47.7 °F 46.1 °F 29.81 in Calm     94% 0.00 in 0 W/m2
05:04 47.6 °F 46 °F 29.81 in Calm     94% 0.00 in 0 W/m2
05:09 47.5 °F 45.9 °F 29.81 in Calm     94% 0.00 in 0 W/m2
05:14 47.5 °F 45.8 °F 29.81 in Calm     94% 0.00 in 0 W/m2
05:19 47.4 °F 45.8 °F 29.81 in Calm     94% 0.00 in 0 W/m2
05:24 47.4 °F 45.8 °F 29.81 in Calm     94% 0.00 in 0 W/m2
05:29 47.3 °F 45.7 °F 29.81 in Calm     94% 0.00 in 0 W/m2
05:34 47.2 °F 45.6 °F 29.82 in Calm     94% 0.00 in 0 W/m2
05:39 47.1 °F 45.5 °F 29.82 in Calm     94% 0.00 in 0 W/m2
05:44 47 °F 45.4 °F 29.82 in Calm     94% 0.00 in 0 W/m2
05:49 46.9 °F 45.3 °F 29.82 in Calm     94% 0.00 in 0 W/m2
05:54 46.8 °F 45.1 °F 29.82 in Calm     94% 0.00 in 0 W/m2
05:59 46.7 °F 45 °F 29.83 in Calm     94% 0.00 in 0 W/m2
06:04 46.5 °F 44.9 °F 29.83 in Calm     94% 0.00 in 0 W/m2
06:09 46.4 °F 44.8 °F 29.83 in Calm     94% 0.00 in 0 W/m2
06:14 46.3 °F 44.7 °F 29.84 in Calm     94% 0.00 in 0 W/m2
06:19 46.2 °F 44.6 °F 29.84 in Calm     94% 0.00 in 0 W/m2
06:24 46.2 °F 44.5 °F 29.84 in Calm     94% 0.00 in 0 W/m2
06:29 46.1 °F 44.5 °F 29.85 in Calm     94% 0.00 in 0 W/m2
06:34 46.1 °F 44.5 °F 29.85 in Calm     94% 0.00 in 0 W/m2
06:39 46.1 °F 44.5 °F 29.85 in Calm     94% 0.00 in 0 W/m2
06:44 46.2 °F 44.7 °F 29.85 in Calm     94.3% 0.00 in 0 W/m2
06:49 46.4 °F 45 °F 29.85 in Calm     95% 0.00 in 0 W/m2
06:54 46.5 °F 45.2 °F 29.85 in Calm     95% 0.00 in 0 W/m2
06:59 46.7 °F 45.3 °F 29.86 in Calm     95% 0.00 in 0 W/m2
07:04 46.8 °F 45.5 °F 29.86 in Calm     95% 0.00 in 0 W/m2
07:09 47 °F 45.7 °F 29.86 in Calm     95% 0.00 in 0 W/m2
07:14 47.3 °F 45.9 °F 29.86 in WSW 0.1 mph 3 mph 95% 0.00 in 0 W/m2
07:19 47.5 °F 46.1 °F 29.86 in WSW 0.1 mph 3 mph 95% 0.00 in 0 W/m2
07:24 47.7 °F 46.3 °F 29.86 in Calm   3 mph 95% 0.00 in 0 W/m2
07:29 47.9 °F 46.5 °F 29.87 in WSW 0.1 mph 3 mph 95% 0.00 in 0 W/m2
07:34 48.1 °F 46.7 °F 29.87 in Calm   3 mph 95% 0.00 in 7 W/m2
07:39 48.3 °F 46.9 °F 29.87 in WSW 0.3 mph 2 mph 95% 0.00 in 11 W/m2
07:44 48.5 °F 47.2 °F 29.87 in Calm   2 mph 95% 0.00 in 14 W/m2
07:49 48.7 °F 47.4 °F 29.88 in Calm   2 mph 95% 0.00 in 11 W/m2
07:54 48.9 °F 47.5 °F 29.88 in Calm   2 mph 95% 0.00 in 9 W/m2
07:59 49.1 °F 47.5 °F 29.89 in Calm   2 mph 94.1% 0.00 in 9 W/m2
08:00 49.2 °F 47.6 °F 29.89 in Calm   2 mph 94% 0.00 in 7 W/m2
08:09 49.5 °F 47.8 °F 29.91 in West 2 mph 5 mph 94% 0.00 in 12 W/m2
08:14 49.6 °F 48 °F 29.91 in West 2.3 mph 10 mph 94% 0.00 in 21 W/m2
08:19 49.8 °F 48 °F 29.91 in WSW 1 mph 10 mph 93.2% 0.00 in 30 W/m2
08:24 50.1 °F 48.1 °F 29.91 in West 1.8 mph 11 mph 92.7% 0.00 in 40 W/m2
08:29 50.5 °F 48.2 °F 29.92 in West 1 mph 11 mph 91.7% 0.00 in 46 W/m2
08:34 50.8 °F 48.3 °F 29.92 in West 0.4 mph 11 mph 91% 0.00 in 49 W/m2
08:39 51.1 °F 48.4 °F 29.92 in Calm   3 mph 90.3% 0.00 in 65 W/m2
08:44 51.3 °F 48.5 °F 29.93 in West 0.6 mph 3 mph 90% 0.00 in 62 W/m2
08:49 51.5 °F 48.3 °F 29.93 in WSW 0.9 mph 5 mph 88.8% 0.00 in 84 W/m2
08:54 51.7 °F 48.2 °F 29.93 in WNW 0.9 mph 12 mph 87.7% 0.00 in 84 W/m2
08:59 52 °F 48.2 °F 29.93 in West 0.6 mph 12 mph 87% 0.00 in 49 W/m2
09:04 52.1 °F 47.9 °F 29.94 in West 1.8 mph 12 mph 85.4% 0.00 in 56 W/m2
09:09 52.3 °F 47.5 °F 29.94 in West 0.7 mph 10 mph 83.6% 0.00 in 125 W/m2
09:14 52.5 °F 47.3 °F 29.94 in West 1.7 mph 10 mph 82.2% 0.00 in 316 W/m2
09:19 53 °F 47 °F 29.94 in WNW 3.3 mph 11 mph 80% 0.00 in 316 W/m2
09:24 53.7 °F 46.8 °F 29.94 in WNW 2.5 mph 11 mph 77.2% 0.00 in 327 W/m2
09:29 54.5 °F 45.7 °F 29.95 in WNW 4.6 mph 20 mph 71.9% 0.00 in 345 W/m2
09:34 55.6 °F 45.2 °F 29.95 in NW 5.1 mph 20 mph 68% 0.00 in 362 W/m2
09:39 56.5 °F 44 °F 29.95 in WNW 5 mph 17 mph 62.9% 0.00 in 374 W/m2
09:44 57.2 °F 44 °F 29.95 in WNW 4.1 mph 17 mph 61.3% 0.00 in 390 W/m2
09:49 57.9 °F 44 °F 29.96 in WNW 4.3 mph 17 mph 59.7% 0.00 in 404 W/m2
09:54 58.4 °F 43.4 °F 29.96 in WNW 3.7 mph 17 mph 57.3% 0.00 in 415 W/m2
09:59 58.6 °F 42.6 °F 29.96 in WNW 6.8 mph 17 mph 55.1% 0.00 in 434 W/m2
10:04 58.7 °F 42.5 °F 29.96 in WNW 4.6 mph 17 mph 54.7% 0.00 in 446 W/m2
10:09 58.8 °F 42.2 °F 29.96 in WNW 3.6 mph 13 mph 54% 0.00 in 457 W/m2
10:14 59 °F 41.9 °F 29.97 in WNW 5.9 mph 14 mph 52.9% 0.00 in 464 W/m2
10:19 59.1 °F 41.7 °F 29.97 in WNW 3.8 mph 14 mph 52.5% 0.00 in 471 W/m2
10:24 58.9 °F 42 °F 29.97 in WNW 2.6 mph 14 mph 53.2% 0.00 in 207 W/m2
10:29 58.7 °F 41.6 °F 29.97 in WNW 4.4 mph 14 mph 52.8% 0.00 in 501 W/m2
10:34 58.8 °F 41.7 °F 29.97 in WNW 3.4 mph 15 mph 52.9% 0.00 in 510 W/m2
10:39 59.1 °F 41.3 °F 29.97 in WNW 4.3 mph 15 mph 51.6% 0.00 in 524 W/m2
10:44 59.3 °F 40.8 °F 29.97 in WNW 3.5 mph 15 mph 50.2% 0.00 in 526 W/m2
10:49 59.4 °F 40.8 °F 29.97 in NW 5.5 mph 15 mph 50.1% 0.00 in 533 W/m2
10:54 59.4 °F 40.9 °F 29.97 in NW 2.6 mph 15 mph 50.3% 0.00 in 297 W/m2
10:59 59.4 °F 40.9 °F 29.97 in WNW 3.5 mph 15 mph 50.4% 0.00 in 540 W/m2
11:04 59.3 °F 41.1 °F 29.97 in NW 3.1 mph 15 mph 50.7% 0.00 in 536 W/m2
11:09 59.5 °F 40.7 °F 29.97 in WNW 6.9 mph 18 mph 49.7% 0.00 in 584 W/m2
11:14 59.9 °F 40.8 °F 29.97 in WNW 5.6 mph 18 mph 49.2% 0.00 in 589 W/m2
11:19 60.1 °F 39.1 °F 29.98 in WNW 7.2 mph 18 mph 45.7% 0.00 in 580 W/m2
11:24 60.3 °F 39.6 °F 29.98 in WNW 8.1 mph 21 mph 46.2% 0.00 in 584 W/m2
11:29 60.2 °F 38.1 °F 29.98 in WNW 12.6 mph 21 mph 43.8% 0.00 in 591 W/m2
11:34 59.9 °F 38.1 °F 29.98 in WNW 8 mph 23 mph 44.2% 0.00 in 598 W/m2
11:39 59.9 °F 38.6 °F 29.99 in WNW 6.8 mph 23 mph 45.2% 0.00 in 601 W/m2
11:44 60.1 °F 38.9 °F 29.99 in WNW 5.5 mph 23 mph 45.4% 0.00 in 527 W/m2
11:49 60.3 °F 38.9 °F 29.99 in WNW 5.2 mph 23 mph 45.1% 0.00 in 564 W/m2
11:54 60.4 °F 38.7 °F 29.99 in WNW 8.9 mph 23 mph 44.6% 0.00 in 564 W/m2
11:59 60.1 °F 37.6 °F 29.99 in WNW 6.6 mph 23 mph 43.1% 0.00 in 69 W/m2
12:00 59.9 °F 38 °F 29.99 in Calm   23 mph 44% 0.00 in 39 W/m2
12:09 59.9 °F 37.5 °F 29.99 in West 7.6 mph 16 mph 43.2% 0.00 in 290 W/m2
12:14 59.9 °F 37.7 °F 29.99 in WNW 7 mph 19 mph 43.5% 0.00 in 376 W/m2
12:19 59.9 °F 38.1 °F 29.99 in WNW 3.2 mph 19 mph 44.3% 0.00 in 139 W/m2
12:24 60.1 °F 40 °F 29.99 in WNW 3 mph 19 mph 47.2% 0.00 in 67 W/m2
12:29 60.4 °F 38.5 °F 29.99 in West 4.1 mph 19 mph 44.2% 0.00 in 204 W/m2
12:34 60.4 °F 38.9 °F 29.98 in WNW 1.9 mph 19 mph 44.9% 0.00 in 72 W/m2
12:39 60.6 °F 39.1 °F 29.98 in WNW 3.7 mph 14 mph 45% 0.00 in 156 W/m2
12:44 60.6 °F 39.1 °F 29.98 in WNW 3.5 mph 14 mph 44.8% 0.00 in 160 W/m2
12:49 60.7 °F 38.7 °F 29.98 in WNW 3.5 mph 14 mph 44.1% 0.00 in 144 W/m2
12:54 60.7 °F 38.2 °F 29.98 in WNW 6.6 mph 16 mph 43.2% 0.00 in 564 W/m2
12:59 60.5 °F 37.6 °F 29.98 in NW 4.5 mph 16 mph 42.5% 0.00 in 635 W/m2
13:04 60.4 °F 37.2 °F 29.98 in WNW 5.9 mph 19 mph 42.1% 0.00 in 515 W/m2
13:09 60.3 °F 37.4 °F 29.98 in West 4.7 mph 19 mph 42.5% 0.00 in 174 W/m2
13:14 60.4 °F 37.1 °F 29.98 in WNW 4.8 mph 19 mph 41.8% 0.00 in 202 W/m2
13:19 60.5 °F 36.2 °F 29.98 in WNW 7.6 mph 20 mph 40.3% 0.00 in 218 W/m2
13:24 60.4 °F 36.1 °F 29.98 in WNW 4 mph 20 mph 40.2% 0.00 in 241 W/m2
13:29 60.6 °F 35.7 °F 29.98 in WNW 4.7 mph 20 mph 39.3% 0.00 in 346 W/m2
13:34 60.8 °F 36.8 °F 29.98 in WNW 3.7 mph 20 mph 40.8% 0.00 in 346 W/m2
13:39 61 °F 36.5 °F 29.98 in WNW 4.1 mph 12 mph 40% 0.00 in 137 W/m2
13:44 60.9 °F 36.6 °F 29.98 in West 4.5 mph 12 mph 40.3% 0.00 in 255 W/m2
13:49 60.7 °F 36.7 °F 29.98 in WNW 5 mph 13 mph 40.8% 0.00 in 301 W/m2
13:54 60.5 °F 36.1 °F 29.98 in WNW 4.7 mph 13 mph 40% 0.00 in 264 W/m2
13:59 60.6 °F 37.2 °F 29.98 in WNW 3.8 mph 13 mph 41.6% 0.00 in 369 W/m2
14:04 60.8 °F 36.9 °F 29.98 in NW 3.9 mph 13 mph 40.9% 0.00 in 135 W/m2
14:09 60.8 °F 36.7 °F 29.98 in NW 4.9 mph 14 mph 40.6% 0.00 in 104 W/m2
14:14 60.7 °F 37.1 °F 29.98 in NW 3 mph 14 mph 41.3% 0.00 in 185 W/m2
14:19 60.7 °F 36.6 °F 29.98 in WNW 1.3 mph 14 mph 40.5% 0.00 in 116 W/m2
14:24 60.7 °F 36.6 °F 29.99 in WNW 5.6 mph 15 mph 40.5% 0.00 in 418 W/m2
14:29 60.7 °F 36.4 °F 29.99 in NW 3.6 mph 15 mph 40.3% 0.00 in 418 W/m2
14:34 60.7 °F 36.7 °F 29.98 in WNW 3.2 mph 15 mph 40.7% 0.00 in 478 W/m2
14:39 60.7 °F 36.2 °F 29.98 in WNW 3.9 mph 13 mph 39.9% 0.00 in 478 W/m2
14:44 60.6 °F 36.4 °F 29.99 in WNW 2.5 mph 13 mph 40.3% 0.00 in 84 W/m2
14:49 60.7 °F 37 °F 29.99 in WNW 3 mph 13 mph 41.1% 0.00 in 118 W/m2
14:54 60.6 °F 37 °F 29.99 in West 1.8 mph 13 mph 41.3% 0.00 in 69 W/m2
14:59 60.6 °F 36.3 °F 29.99 in WSW 1.3 mph 13 mph 40.3% 0.00 in 91 W/m2
15:04 60.5 °F 35.7 °F 29.99 in WNW 1.7 mph 13 mph 39.4% 0.00 in 165 W/m2
15:06 60.5 °F 37 °F 29.99 in NW 2.2 mph 9 mph 41.4% 0.00 in 102 W/m2
15:30 60.2 °F 36.4 °F 30.00 in WNW 3 mph 16 mph 41% 0.00 in 209 W/m2
16:04 58.5 °F 34.3 °F 30.00 in WNW 0.9 mph 3 mph 40% 0.00 in 25 W/m2
16:09 58.5 °F 34.3 °F 30.00 in WNW 6.4 mph 16 mph 40% 0.00 in 25 W/m2
16:14 58.4 °F 34 °F 30.01 in WNW 4.1 mph 16 mph 39.6% 0.00 in 25 W/m2
16:19 58.4 °F 34.5 °F 30.01 in NW 2.1 mph 16 mph 40.5% 0.00 in 23 W/m2
16:24 58.3 °F 34.5 °F 30.01 in WNW 3.2 mph 16 mph 40.7% 0.00 in 23 W/m2
16:29 58.2 °F 34.1 °F 30.00 in WNW 2.8 mph 16 mph 40.2% 0.00 in 21 W/m2
16:34 58 °F 34.2 °F 30.01 in WNW 2.9 mph 16 mph 40.6% 0.00 in 21 W/m2
16:39 57.8 °F 34.3 °F 30.01 in NW 3.9 mph 10 mph 41% 0.00 in 19 W/m2
16:44 57.7 °F 34.5 °F 30.01 in NW 2.8 mph 10 mph 41.5% 0.00 in 19 W/m2
16:49 57.6 °F 34.8 °F 30.01 in NW 0.9 mph 10 mph 42.2% 0.00 in 19 W/m2
16:54 57.5 °F 34.8 °F 30.01 in WNW 2.8 mph 10 mph 42.4% 0.00 in 18 W/m2
16:59 57.4 °F 34.4 °F 30.01 in WNW 2.3 mph 11 mph 41.8% 0.00 in 16 W/m2
17:04 57.2 °F 34.7 °F 30.01 in NW 2.9 mph 11 mph 42.6% 0.00 in 16 W/m2
17:09 57.1 °F 34.4 °F 30.01 in WNW 1.5 mph 10 mph 42.4% 0.00 in 14 W/m2
17:14 56.9 °F 34.6 °F 30.01 in WNW 1.9 mph 10 mph 42.8% 0.00 in 14 W/m2
17:19 56.8 °F 34.3 °F 30.02 in NW 0.4 mph 10 mph 42.6% 0.00 in 12 W/m2
17:24 56.7 °F 34.4 °F 30.02 in NW 0.3 mph 10 mph 43% 0.00 in 11 W/m2
17:29 56.5 °F 34.6 °F 30.02 in NW 0.3 mph 10 mph 43.5% 0.00 in 9 W/m2
17:34 56.3 °F 34.7 °F 30.03 in NW 0.2 mph 10 mph 44% 0.00 in 7 W/m2
17:39 56 °F 35 °F 30.03 in Calm   3 mph 44.9% 0.00 in 5 W/m2
17:44 55.8 °F 35 °F 30.03 in Calm   3 mph 45.4% 0.00 in 0 W/m2
17:49 55.5 °F 34.9 °F 30.03 in Calm   3 mph 45.7% 0.00 in 0 W/m2
17:54 55.1 °F 34.8 °F 30.03 in NW 0.5 mph 5 mph 46% 0.00 in 0 W/m2
17:59 54.8 °F 34.5 °F 30.03 in NW 0.7 mph 5 mph 46% 0.00 in 0 W/m2
18:04 54.5 °F 34.2 °F 30.04 in NW 0.1 mph 5 mph 46.1% 0.00 in 0 W/m2
18:09 54.3 °F 34.3 °F 30.04 in Calm   2 mph 46.7% 0.00 in 0 W/m2
18:14 54 °F 34.3 °F 30.04 in Calm   2 mph 47% 0.00 in 0 W/m2
18:19 53.8 °F 34.1 °F 30.05 in Calm   2 mph 47.2% 0.00 in 0 W/m2
18:24 53.5 °F 34.3 °F 30.05 in Calm   2 mph 47.9% 0.00 in 0 W/m2
18:29 53.3 °F 34.6 °F 30.05 in Calm   2 mph 49% 0.00 in 0 W/m2
18:34 53 °F 34.4 °F 30.05 in Calm   2 mph 49% 0.00 in 0 W/m2
18:39 52.7 °F 34.4 °F 30.05 in Calm     49.6% 0.00 in 0 W/m2
18:43 52.5 °F 34.9 °F 30.06 in Calm     51% 0.00 in 0 W/m2
Hartford County Weather
Compliments of Weather Underground - 4 mb